sensor_id;sensor_type;location;lat;lon;timestamp;temperature;humidity
41924;DHT22;27613;48.116;11.656;2023-05-10T00:01:25;12.60;99.90
41924;DHT22;27613;48.116;11.656;2023-05-10T00:03:50;12.50;99.90
41924;DHT22;27613;48.116;11.656;2023-05-10T00:06:16;12.60;99.90
41924;DHT22;27613;48.116;11.656;2023-05-10T00:08:42;12.50;99.90
41924;DHT22;27613;48.116;11.656;2023-05-10T00:11:07;12.50;99.90
41924;DHT22;27613;48.116;11.656;2023-05-10T00:13:33;12.60;99.90
41924;DHT22;27613;48.116;11.656;2023-05-10T00:15:58;12.40;99.90
41924;DHT22;27613;48.116;11.656;2023-05-10T00:18:24;12.40;99.90
41924;DHT22;27613;48.116;11.656;2023-05-10T00:20:50;12.50;99.90
41924;DHT22;27613;48.116;11.656;2023-05-10T00:23:15;12.50;99.90
41924;DHT22;27613;48.116;11.656;2023-05-10T00:25:41;12.40;99.90
41924;DHT22;27613;48.116;11.656;2023-05-10T00:28:06;12.50;99.90
41924;DHT22;27613;48.116;11.656;2023-05-10T00:30:32;12.50;99.90
41924;DHT22;27613;48.116;11.656;2023-05-10T00:32:57;12.40;99.90
41924;DHT22;27613;48.116;11.656;2023-05-10T00:35:23;12.40;99.90
41924;DHT22;27613;48.116;11.656;2023-05-10T00:37:48;12.40;99.90
41924;DHT22;27613;48.116;11.656;2023-05-10T00:40:14;12.40;99.90
41924;DHT22;27613;48.116;11.656;2023-05-10T00:42:40;12.40;99.90
41924;DHT22;27613;48.116;11.656;2023-05-10T00:45:06;12.30;99.90
41924;DHT22;27613;48.116;11.656;2023-05-10T00:47:32;12.30;99.90
41924;DHT22;27613;48.116;11.656;2023-05-10T00:49:58;12.40;99.90
41924;DHT22;27613;48.116;11.656;2023-05-10T00:52:26;12.40;99.90
41924;DHT22;27613;48.116;11.656;2023-05-10T00:54:52;12.30;99.90
41924;DHT22;27613;48.116;11.656;2023-05-10T00:57:18;12.40;99.90
41924;DHT22;27613;48.116;11.656;2023-05-10T00:59:43;12.40;99.90
41924;DHT22;27613;48.116;11.656;2023-05-10T01:02:09;12.30;99.90
41924;DHT22;27613;48.116;11.656;2023-05-10T01:04:35;12.30;99.90
41924;DHT22;27613;48.116;11.656;2023-05-10T01:07:01;12.40;99.90
41924;DHT22;27613;48.116;11.656;2023-05-10T01:09:27;12.40;99.90
41924;DHT22;27613;48.116;11.656;2023-05-10T01:11:53;12.30;99.90
41924;DHT22;27613;48.116;11.656;2023-05-10T01:14:20;12.30;99.90
41924;DHT22;27613;48.116;11.656;2023-05-10T01:16:48;12.30;99.90
41924;DHT22;27613;48.116;11.656;2023-05-10T01:19:20;12.20;99.90
41924;DHT22;27613;48.116;11.656;2023-05-10T01:21:53;12.20;99.90
41924;DHT22;27613;48.116;11.656;2023-05-10T01:32:57;12.20;99.90
41924;DHT22;27613;48.116;11.656;2023-05-10T01:35:45;12.20;99.90
41924;DHT22;27613;48.116;11.656;2023-05-10T01:43:29;12.10;99.90
41924;DHT22;27613;48.116;11.656;2023-05-10T01:46:06;12.10;99.90
41924;DHT22;27613;48.116;11.656;2023-05-10T01:48:38;12.10;99.90
41924;DHT22;27613;48.116;11.656;2023-05-10T01:51:06;12.10;99.90
41924;DHT22;27613;48.116;11.656;2023-05-10T01:53:34;12.00;99.90
41924;DHT22;27613;48.116;11.656;2023-05-10T01:56:01;12.00;99.90
41924;DHT22;27613;48.116;11.656;2023-05-10T01:58:30;12.00;99.90
41924;DHT22;27613;48.116;11.656;2023-05-10T02:00:58;12.00;99.90
41924;DHT22;27613;48.116;11.656;2023-05-10T02:03:26;11.90;99.90
41924;DHT22;27613;48.116;11.656;2023-05-10T02:05:54;12.00;99.90
41924;DHT22;27613;48.116;11.656;2023-05-10T02:08:22;11.90;99.90
41924;DHT22;27613;48.116;11.656;2023-05-10T02:10:50;12.00;99.90
41924;DHT22;27613;48.116;11.656;2023-05-10T02:13:17;12.00;99.90
41924;DHT22;27613;48.116;11.656;2023-05-10T02:15:44;12.00;99.90
41924;DHT22;27613;48.116;11.656;2023-05-10T02:18:13;12.00;99.90
41924;DHT22;27613;48.116;11.656;2023-05-10T02:20:39;12.00;99.90
41924;DHT22;27613;48.116;11.656;2023-05-10T02:23:06;12.00;99.90
41924;DHT22;27613;48.116;11.656;2023-05-10T02:25:32;12.00;99.90
41924;DHT22;27613;48.116;11.656;2023-05-10T02:28:00;11.90;99.90
41924;DHT22;27613;48.116;11.656;2023-05-10T02:30:27;12.00;99.90
41924;DHT22;27613;48.116;11.656;2023-05-10T02:32:53;11.90;99.90
41924;DHT22;27613;48.116;11.656;2023-05-10T02:35:20;11.90;99.90
41924;DHT22;27613;48.116;11.656;2023-05-10T02:37:47;11.90;99.90
41924;DHT22;27613;48.116;11.656;2023-05-10T02:40:14;12.00;99.90
41924;DHT22;27613;48.116;11.656;2023-05-10T02:42:44;12.10;99.90
41924;DHT22;27613;48.116;11.656;2023-05-10T02:45:14;11.90;99.90
41924;DHT22;27613;48.116;11.656;2023-05-10T02:47:40;12.00;99.90
41924;DHT22;27613;48.116;11.656;2023-05-10T02:50:06;12.00;99.90
41924;DHT22;27613;48.116;11.656;2023-05-10T02:52:45;11.90;99.90
41924;DHT22;27613;48.116;11.656;2023-05-10T02:55:14;12.00;99.90
41924;DHT22;27613;48.116;11.656;2023-05-10T02:57:46;11.90;99.90
41924;DHT22;27613;48.116;11.656;2023-05-10T03:00:14;11.90;99.90
41924;DHT22;27613;48.116;11.656;2023-05-10T03:02:40;11.90;99.90
41924;DHT22;27613;48.116;11.656;2023-05-10T03:05:05;12.00;99.90
41924;DHT22;27613;48.116;11.656;2023-05-10T03:07:32;12.00;99.90
41924;DHT22;27613;48.116;11.656;2023-05-10T03:09:58;12.00;99.90
41924;DHT22;27613;48.116;11.656;2023-05-10T03:18:21;11.90;99.90
41924;DHT22;27613;48.116;11.656;2023-05-10T03:20:49;11.90;99.90
41924;DHT22;27613;48.116;11.656;2023-05-10T03:23:34;11.90;99.90
41924;DHT22;27613;48.116;11.656;2023-05-10T03:26:00;11.90;99.90
41924;DHT22;27613;48.116;11.656;2023-05-10T03:28:27;11.90;99.90
41924;DHT22;27613;48.116;11.656;2023-05-10T03:30:53;11.90;99.90
41924;DHT22;27613;48.116;11.656;2023-05-10T03:33:19;11.90;99.90
41924;DHT22;27613;48.116;11.656;2023-05-10T03:35:45;11.90;99.90
41924;DHT22;27613;48.116;11.656;2023-05-10T03:38:11;11.90;99.90
41924;DHT22;27613;48.116;11.656;2023-05-10T03:40:37;11.90;99.90
41924;DHT22;27613;48.116;11.656;2023-05-10T03:43:03;11.90;99.90
41924;DHT22;27613;48.116;11.656;2023-05-10T03:45:28;11.90;99.90
41924;DHT22;27613;48.116;11.656;2023-05-10T03:47:54;11.90;99.90
41924;DHT22;27613;48.116;11.656;2023-05-10T03:50:20;11.90;99.90
41924;DHT22;27613;48.116;11.656;2023-05-10T03:52:46;11.90;99.90
41924;DHT22;27613;48.116;11.656;2023-05-10T03:55:11;11.90;99.90
41924;DHT22;27613;48.116;11.656;2023-05-10T03:57:37;11.90;99.90
41924;DHT22;27613;48.116;11.656;2023-05-10T04:00:03;11.90;99.90
41924;DHT22;27613;48.116;11.656;2023-05-10T04:02:29;11.80;99.90
41924;DHT22;27613;48.116;11.656;2023-05-10T04:04:55;11.80;99.90
41924;DHT22;27613;48.116;11.656;2023-05-10T04:07:21;11.90;99.90
41924;DHT22;27613;48.116;11.656;2023-05-10T04:09:47;11.80;99.90
41924;DHT22;27613;48.116;11.656;2023-05-10T04:12:13;11.90;99.90
41924;DHT22;27613;48.116;11.656;2023-05-10T04:14:38;11.90;99.90
41924;DHT22;27613;48.116;11.656;2023-05-10T04:17:04;11.90;99.90
41924;DHT22;27613;48.116;11.656;2023-05-10T04:19:33;11.90;99.90
41924;DHT22;27613;48.116;11.656;2023-05-10T04:21:58;11.90;99.90
41924;DHT22;27613;48.116;11.656;2023-05-10T04:24:24;11.90;99.90
41924;DHT22;27613;48.116;11.656;2023-05-10T04:26:50;11.90;99.90
41924;DHT22;27613;48.116;11.656;2023-05-10T04:29:16;11.90;99.90
41924;DHT22;27613;48.116;11.656;2023-05-10T04:31:41;12.00;99.90
41924;DHT22;27613;48.116;11.656;2023-05-10T04:34:07;12.00;99.90
41924;DHT22;27613;48.116;11.656;2023-05-10T04:36:32;11.90;99.90
41924;DHT22;27613;48.116;11.656;2023-05-10T04:39:00;12.00;99.90
41924;DHT22;27613;48.116;11.656;2023-05-10T04:41:26;11.90;99.90
41924;DHT22;27613;48.116;11.656;2023-05-10T04:43:51;11.90;99.90
41924;DHT22;27613;48.116;11.656;2023-05-10T04:46:17;11.90;99.90
41924;DHT22;27613;48.116;11.656;2023-05-10T04:48:42;12.00;99.90
41924;DHT22;27613;48.116;11.656;2023-05-10T04:51:08;12.00;99.90
41924;DHT22;27613;48.116;11.656;2023-05-10T04:53:33;12.00;99.90
41924;DHT22;27613;48.116;11.656;2023-05-10T04:55:59;12.00;99.90
41924;DHT22;27613;48.116;11.656;2023-05-10T04:58:24;12.00;99.90
41924;DHT22;27613;48.116;11.656;2023-05-10T05:00:50;12.00;99.90
41924;DHT22;27613;48.116;11.656;2023-05-10T05:03:15;12.00;99.90
41924;DHT22;27613;48.116;11.656;2023-05-10T05:05:41;11.90;99.90
41924;DHT22;27613;48.116;11.656;2023-05-10T05:08:06;11.90;99.90
41924;DHT22;27613;48.116;11.656;2023-05-10T05:10:32;11.90;99.90
41924;DHT22;27613;48.116;11.656;2023-05-10T05:12:57;11.90;99.90
41924;DHT22;27613;48.116;11.656;2023-05-10T05:15:23;11.90;99.90
41924;DHT22;27613;48.116;11.656;2023-05-10T05:17:48;11.90;99.90
41924;DHT22;27613;48.116;11.656;2023-05-10T05:20:14;11.80;99.90
41924;DHT22;27613;48.116;11.656;2023-05-10T05:22:40;11.80;99.90
41924;DHT22;27613;48.116;11.656;2023-05-10T05:25:06;11.80;99.90
41924;DHT22;27613;48.116;11.656;2023-05-10T05:27:31;11.80;99.90
41924;DHT22;27613;48.116;11.656;2023-05-10T05:29:58;11.70;99.90
41924;DHT22;27613;48.116;11.656;2023-05-10T05:32:24;11.70;99.90
41924;DHT22;27613;48.116;11.656;2023-05-10T05:34:50;11.60;99.90
41924;DHT22;27613;48.116;11.656;2023-05-10T05:37:18;11.70;99.90
41924;DHT22;27613;48.116;11.656;2023-05-10T05:39:44;11.60;99.90
41924;DHT22;27613;48.116;11.656;2023-05-10T05:42:10;11.60;99.90
41924;DHT22;27613;48.116;11.656;2023-05-10T05:44:36;11.60;99.90
41924;DHT22;27613;48.116;11.656;2023-05-10T05:47:01;11.60;99.90
41924;DHT22;27613;48.116;11.656;2023-05-10T05:49:27;11.60;99.90
41924;DHT22;27613;48.116;11.656;2023-05-10T05:51:53;11.50;99.90
41924;DHT22;27613;48.116;11.656;2023-05-10T05:54:18;11.40;99.90
41924;DHT22;27613;48.116;11.656;2023-05-10T05:56:44;11.30;99.90
41924;DHT22;27613;48.116;11.656;2023-05-10T05:59:10;11.30;99.90
41924;DHT22;27613;48.116;11.656;2023-05-10T06:01:36;11.30;99.90
41924;DHT22;27613;48.116;11.656;2023-05-10T06:04:02;11.30;99.90
41924;DHT22;27613;48.116;11.656;2023-05-10T06:06:28;11.30;99.90
41924;DHT22;27613;48.116;11.656;2023-05-10T06:08:53;11.30;99.90
41924;DHT22;27613;48.116;11.656;2023-05-10T06:11:19;11.40;99.90
41924;DHT22;27613;48.116;11.656;2023-05-10T06:13:46;11.40;99.90
41924;DHT22;27613;48.116;11.656;2023-05-10T06:16:12;11.50;99.90
41924;DHT22;27613;48.116;11.656;2023-05-10T06:18:38;11.50;99.90
41924;DHT22;27613;48.116;11.656;2023-05-10T06:21:04;11.60;99.90
41924;DHT22;27613;48.116;11.656;2023-05-10T06:23:29;11.60;99.90
41924;DHT22;27613;48.116;11.656;2023-05-10T06:25:55;11.70;99.90
41924;DHT22;27613;48.116;11.656;2023-05-10T06:28:20;11.70;99.90
41924;DHT22;27613;48.116;11.656;2023-05-10T06:30:46;11.80;99.90
41924;DHT22;27613;48.116;11.656;2023-05-10T06:33:11;11.90;99.90
41924;DHT22;27613;48.116;11.656;2023-05-10T06:35:37;11.90;99.90
41924;DHT22;27613;48.116;11.656;2023-05-10T06:38:03;11.90;99.90
41924;DHT22;27613;48.116;11.656;2023-05-10T06:40:28;11.90;99.90
41924;DHT22;27613;48.116;11.656;2023-05-10T06:42:54;11.90;99.90
41924;DHT22;27613;48.116;11.656;2023-05-10T06:45:19;12.00;99.90
41924;DHT22;27613;48.116;11.656;2023-05-10T06:47:45;12.00;99.90
41924;DHT22;27613;48.116;11.656;2023-05-10T06:50:11;12.00;99.90
41924;DHT22;27613;48.116;11.656;2023-05-10T06:52:37;12.10;99.90
41924;DHT22;27613;48.116;11.656;2023-05-10T06:55:03;12.30;99.90
41924;DHT22;27613;48.116;11.656;2023-05-10T06:57:29;12.40;99.90
41924;DHT22;27613;48.116;11.656;2023-05-10T06:59:55;12.50;99.90
41924;DHT22;27613;48.116;11.656;2023-05-10T07:02:22;12.50;99.90
41924;DHT22;27613;48.116;11.656;2023-05-10T07:04:48;12.70;99.90
41924;DHT22;27613;48.116;11.656;2023-05-10T07:07:14;12.80;99.90
41924;DHT22;27613;48.116;11.656;2023-05-10T07:09:39;12.90;99.90
41924;DHT22;27613;48.116;11.656;2023-05-10T07:12:05;12.80;99.90
41924;DHT22;27613;48.116;11.656;2023-05-10T07:14:30;12.90;99.90
41924;DHT22;27613;48.116;11.656;2023-05-10T07:16:56;12.80;99.90
41924;DHT22;27613;48.116;11.656;2023-05-10T07:19:21;12.80;99.90
41924;DHT22;27613;48.116;11.656;2023-05-10T07:21:47;12.90;99.90
41924;DHT22;27613;48.116;11.656;2023-05-10T07:24:13;12.90;99.90
41924;DHT22;27613;48.116;11.656;2023-05-10T07:26:38;13.00;99.90
41924;DHT22;27613;48.116;11.656;2023-05-10T07:29:04;12.90;99.90
41924;DHT22;27613;48.116;11.656;2023-05-10T07:31:29;13.00;99.90
41924;DHT22;27613;48.116;11.656;2023-05-10T07:33:55;13.20;99.90
41924;DHT22;27613;48.116;11.656;2023-05-10T07:36:20;13.40;99.90
41924;DHT22;27613;48.116;11.656;2023-05-10T07:38:46;13.70;99.90
41924;DHT22;27613;48.116;11.656;2023-05-10T07:41:12;13.90;99.90
41924;DHT22;27613;48.116;11.656;2023-05-10T07:43:37;14.00;99.90
41924;DHT22;27613;48.116;11.656;2023-05-10T07:46:03;14.10;99.90
41924;DHT22;27613;48.116;11.656;2023-05-10T07:48:28;14.10;99.90
41924;DHT22;27613;48.116;11.656;2023-05-10T07:50:54;14.00;99.90
41924;DHT22;27613;48.116;11.656;2023-05-10T07:53:19;14.00;99.90
41924;DHT22;27613;48.116;11.656;2023-05-10T07:55:50;14.10;99.90
41924;DHT22;27613;48.116;11.656;2023-05-10T07:58:17;14.20;99.90
41924;DHT22;27613;48.116;11.656;2023-05-10T08:00:42;14.20;99.90
41924;DHT22;27613;48.116;11.656;2023-05-10T08:03:07;14.30;99.90
41924;DHT22;27613;48.116;11.656;2023-05-10T08:05:33;14.50;99.90
41924;DHT22;27613;48.116;11.656;2023-05-10T08:07:59;14.80;99.90
41924;DHT22;27613;48.116;11.656;2023-05-10T08:10:25;15.00;99.90
41924;DHT22;27613;48.116;11.656;2023-05-10T08:12:50;15.10;99.90
41924;DHT22;27613;48.116;11.656;2023-05-10T08:15:16;15.00;99.90
41924;DHT22;27613;48.116;11.656;2023-05-10T08:17:42;15.10;99.90
41924;DHT22;27613;48.116;11.656;2023-05-10T08:20:08;15.40;99.90
41924;DHT22;27613;48.116;11.656;2023-05-10T08:22:34;15.90;99.90
41924;DHT22;27613;48.116;11.656;2023-05-10T08:24:59;16.30;99.90
41924;DHT22;27613;48.116;11.656;2023-05-10T08:27:25;16.60;99.90
41924;DHT22;27613;48.116;11.656;2023-05-10T08:29:51;16.90;99.90
41924;DHT22;27613;48.116;11.656;2023-05-10T08:32:17;16.30;99.90
41924;DHT22;27613;48.116;11.656;2023-05-10T08:34:42;16.20;99.90
41924;DHT22;27613;48.116;11.656;2023-05-10T08:37:08;16.30;99.90
41924;DHT22;27613;48.116;11.656;2023-05-10T08:39:36;16.30;99.90
41924;DHT22;27613;48.116;11.656;2023-05-10T08:42:04;16.10;99.90
41924;DHT22;27613;48.116;11.656;2023-05-10T08:44:32;16.20;99.90
41924;DHT22;27613;48.116;11.656;2023-05-10T08:46:59;15.80;99.90
41924;DHT22;27613;48.116;11.656;2023-05-10T08:49:27;15.40;99.90
41924;DHT22;27613;48.116;11.656;2023-05-10T08:51:57;15.20;99.90
41924;DHT22;27613;48.116;11.656;2023-05-10T08:54:24;14.90;99.90
41924;DHT22;27613;48.116;11.656;2023-05-10T08:56:50;14.70;99.90
41924;DHT22;27613;48.116;11.656;2023-05-10T08:59:16;14.60;99.90
41924;DHT22;27613;48.116;11.656;2023-05-10T09:01:44;14.50;99.90
41924;DHT22;27613;48.116;11.656;2023-05-10T09:04:10;14.60;99.90
41924;DHT22;27613;48.116;11.656;2023-05-10T09:06:36;14.70;99.90
41924;DHT22;27613;48.116;11.656;2023-05-10T09:09:01;14.60;99.90
41924;DHT22;27613;48.116;11.656;2023-05-10T09:11:28;14.60;99.90
41924;DHT22;27613;48.116;11.656;2023-05-10T09:13:55;14.60;99.90
41924;DHT22;27613;48.116;11.656;2023-05-10T09:16:22;14.60;99.90
41924;DHT22;27613;48.116;11.656;2023-05-10T09:18:48;14.70;99.90
41924;DHT22;27613;48.116;11.656;2023-05-10T09:21:14;14.60;99.90
41924;DHT22;27613;48.116;11.656;2023-05-10T09:23:47;14.70;99.90
41924;DHT22;27613;48.116;11.656;2023-05-10T09:26:12;14.90;99.90
41924;DHT22;27613;48.116;11.656;2023-05-10T09:28:52;15.50;99.90
41924;DHT22;27613;48.116;11.656;2023-05-10T09:31:18;17.20;99.90
41924;DHT22;27613;48.116;11.656;2023-05-10T09:33:48;19.30;99.90
41924;DHT22;27613;48.116;11.656;2023-05-10T09:36:14;20.60;93.50
41924;DHT22;27613;48.116;11.656;2023-05-10T09:38:50;22.00;87.30
41924;DHT22;27613;48.116;11.656;2023-05-10T09:41:23;21.60;81.00
41924;DHT22;27613;48.116;11.656;2023-05-10T09:43:55;19.10;87.50
41924;DHT22;27613;48.116;11.656;2023-05-10T09:46:21;18.20;92.50
41924;DHT22;27613;48.116;11.656;2023-05-10T09:48:48;17.30;94.00
41924;DHT22;27613;48.116;11.656;2023-05-10T09:51:24;16.60;93.60
41924;DHT22;27613;48.116;11.656;2023-05-10T09:54:10;16.20;95.20
41924;DHT22;27613;48.116;11.656;2023-05-10T09:56:36;16.20;96.40
41924;DHT22;27613;48.116;11.656;2023-05-10T09:59:04;16.50;96.70
41924;DHT22;27613;48.116;11.656;2023-05-10T10:01:30;17.40;93.50
41924;DHT22;27613;48.116;11.656;2023-05-10T10:03:56;18.70;91.00
41924;DHT22;27613;48.116;11.656;2023-05-10T10:06:23;19.40;90.90
41924;DHT22;27613;48.116;11.656;2023-05-10T10:08:50;19.60;87.40
41924;DHT22;27613;48.116;11.656;2023-05-10T10:11:16;19.30;88.50
41924;DHT22;27613;48.116;11.656;2023-05-10T10:13:41;19.20;89.70
41924;DHT22;27613;48.116;11.656;2023-05-10T10:16:08;19.30;88.90
41924;DHT22;27613;48.116;11.656;2023-05-10T10:18:36;18.90;91.20
41924;DHT22;27613;48.116;11.656;2023-05-10T10:21:05;18.70;92.10
41924;DHT22;27613;48.116;11.656;2023-05-10T10:23:32;18.60;92.00
41924;DHT22;27613;48.116;11.656;2023-05-10T10:25:58;17.80;93.30
41924;DHT22;27613;48.116;11.656;2023-05-10T10:28:51;17.50;93.70
41924;DHT22;27613;48.116;11.656;2023-05-10T10:33:59;17.60;93.70
41924;DHT22;27613;48.116;11.656;2023-05-10T10:36:25;17.80;94.10
41924;DHT22;27613;48.116;11.656;2023-05-10T10:38:58;18.00;93.90
41924;DHT22;27613;48.116;11.656;2023-05-10T10:41:50;17.80;91.70
41924;DHT22;27613;48.116;11.656;2023-05-10T10:49:51;16.90;99.90
41924;DHT22;27613;48.116;11.656;2023-05-10T11:00:28;18.90;95.80
41924;DHT22;27613;48.116;11.656;2023-05-10T11:05:58;19.00;91.90
41924;DHT22;27613;48.116;11.656;2023-05-10T11:11:14;17.90;93.20
41924;DHT22;27613;48.116;11.656;2023-05-10T11:16:15;17.10;95.20
41924;DHT22;27613;48.116;11.656;2023-05-10T11:18:44;17.00;96.10
41924;DHT22;27613;48.116;11.656;2023-05-10T11:21:16;16.40;96.40
41924;DHT22;27613;48.116;11.656;2023-05-10T11:26:11;16.10;96.60
41924;DHT22;27613;48.116;11.656;2023-05-10T11:28:44;15.90;99.90
41924;DHT22;27613;48.116;11.656;2023-05-10T11:31:12;15.30;99.90
41924;DHT22;27613;48.116;11.656;2023-05-10T11:33:46;15.00;99.90
41924;DHT22;27613;48.116;11.656;2023-05-10T11:36:16;14.80;99.90
41924;DHT22;27613;48.116;11.656;2023-05-10T11:38:42;14.80;99.90
41924;DHT22;27613;48.116;11.656;2023-05-10T11:41:09;14.50;99.90
41924;DHT22;27613;48.116;11.656;2023-05-10T11:43:36;14.20;99.90
41924;DHT22;27613;48.116;11.656;2023-05-10T11:46:07;13.00;99.90
41924;DHT22;27613;48.116;11.656;2023-05-10T11:48:33;13.00;99.90
41924;DHT22;27613;48.116;11.656;2023-05-10T11:51:01;12.80;99.90
41924;DHT22;27613;48.116;11.656;2023-05-10T11:53:28;12.60;99.90
41924;DHT22;27613;48.116;11.656;2023-05-10T11:55:54;12.40;99.90
41924;DHT22;27613;48.116;11.656;2023-05-10T11:58:20;12.40;99.90
41924;DHT22;27613;48.116;11.656;2023-05-10T12:00:46;12.50;99.90
41924;DHT22;27613;48.116;11.656;2023-05-10T12:03:13;12.50;99.90
41924;DHT22;27613;48.116;11.656;2023-05-10T12:05:38;12.30;99.90
41924;DHT22;27613;48.116;11.656;2023-05-10T12:08:14;12.30;99.90
41924;DHT22;27613;48.116;11.656;2023-05-10T12:10:40;12.40;99.90
41924;DHT22;27613;48.116;11.656;2023-05-10T12:13:05;12.20;99.90
41924;DHT22;27613;48.116;11.656;2023-05-10T12:15:35;12.20;99.90
41924;DHT22;27613;48.116;11.656;2023-05-10T12:18:01;12.10;99.90
41924;DHT22;27613;48.116;11.656;2023-05-10T12:20:28;12.20;99.90
41924;DHT22;27613;48.116;11.656;2023-05-10T12:22:55;11.80;99.90
41924;DHT22;27613;48.116;11.656;2023-05-10T12:25:22;12.00;99.90
41924;DHT22;27613;48.116;11.656;2023-05-10T12:27:52;11.50;99.90
41924;DHT22;27613;48.116;11.656;2023-05-10T12:30:25;11.60;99.90
41924;DHT22;27613;48.116;11.656;2023-05-10T12:32:52;11.80;99.90
41924;DHT22;27613;48.116;11.656;2023-05-10T12:35:18;11.70;99.90
41924;DHT22;27613;48.116;11.656;2023-05-10T12:37:50;11.60;99.90
41924;DHT22;27613;48.116;11.656;2023-05-10T12:40:15;11.70;99.90
41924;DHT22;27613;48.116;11.656;2023-05-10T12:42:41;11.70;99.90
41924;DHT22;27613;48.116;11.656;2023-05-10T12:45:07;11.60;99.90
41924;DHT22;27613;48.116;11.656;2023-05-10T12:47:34;11.60;99.90
41924;DHT22;27613;48.116;11.656;2023-05-10T12:50:00;11.60;99.90
41924;DHT22;27613;48.116;11.656;2023-05-10T12:52:27;11.60;99.90
41924;DHT22;27613;48.116;11.656;2023-05-10T12:54:52;11.90;99.90
41924;DHT22;27613;48.116;11.656;2023-05-10T12:57:19;12.00;99.90
41924;DHT22;27613;48.116;11.656;2023-05-10T12:59:45;11.80;99.90
41924;DHT22;27613;48.116;11.656;2023-05-10T13:02:10;11.70;99.90
41924;DHT22;27613;48.116;11.656;2023-05-10T13:04:36;11.80;99.90
41924;DHT22;27613;48.116;11.656;2023-05-10T13:07:05;11.70;99.90
41924;DHT22;27613;48.116;11.656;2023-05-10T13:09:31;11.70;99.90
41924;DHT22;27613;48.116;11.656;2023-05-10T13:11:56;11.80;99.90
41924;DHT22;27613;48.116;11.656;2023-05-10T13:14:22;12.00;99.90
41924;DHT22;27613;48.116;11.656;2023-05-10T13:16:47;12.00;99.90
41924;DHT22;27613;48.116;11.656;2023-05-10T13:19:13;12.00;99.90
41924;DHT22;27613;48.116;11.656;2023-05-10T13:21:39;12.00;99.90
41924;DHT22;27613;48.116;11.656;2023-05-10T13:24:06;12.00;99.90
41924;DHT22;27613;48.116;11.656;2023-05-10T13:26:32;12.00;99.90
41924;DHT22;27613;48.116;11.656;2023-05-10T13:28:58;12.10;99.90
41924;DHT22;27613;48.116;11.656;2023-05-10T13:31:24;12.10;99.90
41924;DHT22;27613;48.116;11.656;2023-05-10T13:33:49;12.10;99.90
41924;DHT22;27613;48.116;11.656;2023-05-10T13:36:15;12.00;99.90
41924;DHT22;27613;48.116;11.656;2023-05-10T13:38:40;12.00;99.90
41924;DHT22;27613;48.116;11.656;2023-05-10T13:41:06;11.90;99.90
41924;DHT22;27613;48.116;11.656;2023-05-10T13:43:31;12.20;99.90
41924;DHT22;27613;48.116;11.656;2023-05-10T13:45:57;12.20;99.90
41924;DHT22;27613;48.116;11.656;2023-05-10T13:48:22;12.30;99.90
41924;DHT22;27613;48.116;11.656;2023-05-10T13:50:48;12.30;99.90
41924;DHT22;27613;48.116;11.656;2023-05-10T13:53:13;12.20;99.90
41924;DHT22;27613;48.116;11.656;2023-05-10T13:55:39;12.20;99.90
41924;DHT22;27613;48.116;11.656;2023-05-10T13:58:05;12.20;99.90
41924;DHT22;27613;48.116;11.656;2023-05-10T14:00:30;12.30;99.90
41924;DHT22;27613;48.116;11.656;2023-05-10T14:02:56;12.20;99.90
41924;DHT22;27613;48.116;11.656;2023-05-10T14:05:21;12.30;99.90
41924;DHT22;27613;48.116;11.656;2023-05-10T14:07:49;12.30;99.90
41924;DHT22;27613;48.116;11.656;2023-05-10T14:10:15;12.00;99.90
41924;DHT22;27613;48.116;11.656;2023-05-10T14:12:41;12.20;99.90
41924;DHT22;27613;48.116;11.656;2023-05-10T14:15:06;12.20;99.90
41924;DHT22;27613;48.116;11.656;2023-05-10T14:17:32;12.00;99.90
41924;DHT22;27613;48.116;11.656;2023-05-10T14:19:58;12.00;99.90
41924;DHT22;27613;48.116;11.656;2023-05-10T14:22:23;12.00;99.90
41924;DHT22;27613;48.116;11.656;2023-05-10T14:24:49;11.90;99.90
41924;DHT22;27613;48.116;11.656;2023-05-10T14:27:15;11.80;99.90
41924;DHT22;27613;48.116;11.656;2023-05-10T14:29:41;11.80;99.90
41924;DHT22;27613;48.116;11.656;2023-05-10T14:32:07;11.80;99.90
41924;DHT22;27613;48.116;11.656;2023-05-10T14:34:32;11.80;99.90
41924;DHT22;27613;48.116;11.656;2023-05-10T14:36:58;11.90;99.90
41924;DHT22;27613;48.116;11.656;2023-05-10T14:39:24;12.00;99.90
41924;DHT22;27613;48.116;11.656;2023-05-10T14:41:50;12.00;99.90
41924;DHT22;27613;48.116;11.656;2023-05-10T14:44:17;12.00;99.90
41924;DHT22;27613;48.116;11.656;2023-05-10T14:46:42;12.00;99.90
41924;DHT22;27613;48.116;11.656;2023-05-10T14:49:08;12.10;99.90
41924;DHT22;27613;48.116;11.656;2023-05-10T14:51:33;12.10;99.90
41924;DHT22;27613;48.116;11.656;2023-05-10T14:53:59;12.10;99.90
41924;DHT22;27613;48.116;11.656;2023-05-10T14:56:24;12.20;99.90
41924;DHT22;27613;48.116;11.656;2023-05-10T14:58:51;12.20;99.90
41924;DHT22;27613;48.116;11.656;2023-05-10T15:01:17;12.00;99.90
41924;DHT22;27613;48.116;11.656;2023-05-10T15:03:42;11.90;99.90
41924;DHT22;27613;48.116;11.656;2023-05-10T15:06:08;11.80;99.90
41924;DHT22;27613;48.116;11.656;2023-05-10T15:08:34;11.80;99.90
41924;DHT22;27613;48.116;11.656;2023-05-10T15:10:59;11.80;99.90
41924;DHT22;27613;48.116;11.656;2023-05-10T15:13:25;11.70;99.90
41924;DHT22;27613;48.116;11.656;2023-05-10T15:15:50;11.70;99.90
41924;DHT22;27613;48.116;11.656;2023-05-10T15:18:16;11.70;99.90
41924;DHT22;27613;48.116;11.656;2023-05-10T15:20:41;11.60;99.90
41924;DHT22;27613;48.116;11.656;2023-05-10T15:23:08;11.60;99.90
41924;DHT22;27613;48.116;11.656;2023-05-10T15:25:34;11.50;99.90
41924;DHT22;27613;48.116;11.656;2023-05-10T15:28:01;11.50;99.90
41924;DHT22;27613;48.116;11.656;2023-05-10T15:30:27;11.50;99.90
41924;DHT22;27613;48.116;11.656;2023-05-10T15:32:53;11.50;99.90
41924;DHT22;27613;48.116;11.656;2023-05-10T15:35:18;11.60;99.90
41924;DHT22;27613;48.116;11.656;2023-05-10T15:37:44;11.60;99.90
41924;DHT22;27613;48.116;11.656;2023-05-10T15:40:10;11.50;99.90
41924;DHT22;27613;48.116;11.656;2023-05-10T15:42:35;11.60;99.90
41924;DHT22;27613;48.116;11.656;2023-05-10T15:45:01;11.50;99.90
41924;DHT22;27613;48.116;11.656;2023-05-10T15:47:29;11.50;99.90
41924;DHT22;27613;48.116;11.656;2023-05-10T15:49:55;11.50;99.90
41924;DHT22;27613;48.116;11.656;2023-05-10T15:52:20;11.40;99.90
41924;DHT22;27613;48.116;11.656;2023-05-10T15:54:47;11.30;99.90
41924;DHT22;27613;48.116;11.656;2023-05-10T15:57:12;11.30;99.90
41924;DHT22;27613;48.116;11.656;2023-05-10T15:59:38;11.20;99.90